createdAt,value
2023-04-15T00:00:58.253Z,3.00
2023-04-15T00:03:25.575Z,3.00
2023-04-15T00:05:52.713Z,3.00
2023-04-15T00:08:20.462Z,2.90
2023-04-15T00:10:47.872Z,2.80
2023-04-15T00:13:15.455Z,2.80
2023-04-15T00:15:43.154Z,2.70
2023-04-15T00:18:09.976Z,2.70
2023-04-15T00:20:37.232Z,2.70
2023-04-15T00:23:04.383Z,2.70
2023-04-15T00:25:31.642Z,2.60
2023-04-15T00:27:58.464Z,2.70
2023-04-15T00:30:26.586Z,2.60
2023-04-15T00:32:53.545Z,2.60
2023-04-15T00:35:20.681Z,2.60
2023-04-15T00:37:47.547Z,2.60
2023-04-15T00:40:18.765Z,2.50
2023-04-15T00:42:45.744Z,2.50
2023-04-15T00:45:13.017Z,2.40
2023-04-15T00:47:41.797Z,2.40
2023-04-15T00:50:09.592Z,2.40
2023-04-15T00:52:37.147Z,2.40
2023-04-15T00:55:04.804Z,2.30
2023-04-15T00:57:32.160Z,2.30
2023-04-15T01:00:00.255Z,2.20
2023-04-15T01:02:27.503Z,2.20
2023-04-15T01:04:54.520Z,2.10
2023-04-15T01:07:21.397Z,2.20
2023-04-15T01:09:48.162Z,2.10
2023-04-15T01:12:18.282Z,2.10
2023-04-15T01:14:45.385Z,2.10
2023-04-15T01:17:12.512Z,2.00
2023-04-15T01:19:39.838Z,2.00
2023-04-15T01:22:06.660Z,2.00
2023-04-15T01:24:34.368Z,2.00
2023-04-15T01:27:01.445Z,2.00
2023-04-15T01:29:28.597Z,2.00
2023-04-15T01:31:56.932Z,1.90
2023-04-15T01:34:23.788Z,1.90
2023-04-15T01:36:51.105Z,1.80
2023-04-15T01:39:17.947Z,1.70
2023-04-15T01:41:44.673Z,1.60
2023-04-15T01:44:11.661Z,1.60
2023-04-15T01:46:38.484Z,1.50
2023-04-15T01:49:05.280Z,1.40
2023-04-15T01:51:32.119Z,1.40
2023-04-15T01:53:59.029Z,1.40
2023-04-15T01:56:26.481Z,1.30
2023-04-15T01:58:53.699Z,1.20
2023-04-15T02:01:20.902Z,1.30
2023-04-15T02:03:48.366Z,1.20
2023-04-15T02:06:15.523Z,1.30
2023-04-15T02:08:42.396Z,1.20
2023-04-15T02:11:09.309Z,1.20
2023-04-15T02:13:36.311Z,1.10
2023-04-15T02:16:03.721Z,1.20
2023-04-15T02:18:30.577Z,1.10
2023-04-15T02:20:58.599Z,1.20
2023-04-15T02:23:25.837Z,1.20
2023-04-15T02:25:53.401Z,1.20
2023-04-15T02:28:21.952Z,1.20
2023-04-15T02:30:53.356Z,1.30
2023-04-15T02:33:21.717Z,1.30
2023-04-15T02:35:48.659Z,1.20
2023-04-15T02:38:17.147Z,1.30
2023-04-15T02:40:44.145Z,1.30
2023-04-15T02:43:10.888Z,1.20
2023-04-15T02:45:37.679Z,1.20
2023-04-15T02:48:06.688Z,1.20
2023-04-15T02:50:33.629Z,1.10
2023-04-15T02:53:01.537Z,1.10
2023-04-15T02:55:29.091Z,1.00
2023-04-15T02:57:55.988Z,0.90
2023-04-15T03:00:25.242Z,0.80
2023-04-15T03:02:56.595Z,1.10
2023-04-15T03:05:25.347Z,0.80
2023-04-15T03:07:52.376Z,0.80
2023-04-15T03:10:19.339Z,0.70
2023-04-15T03:12:46.189Z,0.70
2023-04-15T03:15:12.995Z,0.80
2023-04-15T03:17:39.844Z,0.70
2023-04-15T03:20:07.553Z,0.70
2023-04-15T03:22:34.520Z,0.70
2023-04-15T03:25:01.705Z,0.70
2023-04-15T03:27:28.448Z,0.70
2023-04-15T03:29:56.715Z,0.70
2023-04-15T03:32:23.484Z,0.70
2023-04-15T03:34:50.307Z,0.70
2023-04-15T03:37:17.038Z,0.80
2023-04-15T03:39:43.877Z,0.80
2023-04-15T03:42:11.037Z,0.80
2023-04-15T03:44:38.373Z,0.80
2023-04-15T03:47:05.190Z,0.80
2023-04-15T03:49:32.029Z,0.80
2023-04-15T03:51:59.637Z,0.70
2023-04-15T03:54:26.569Z,0.70
2023-04-15T03:56:53.334Z,0.60
2023-04-15T03:59:20.043Z,0.60
2023-04-15T04:01:46.967Z,0.60
2023-04-15T04:04:13.860Z,0.60
2023-04-15T04:06:40.629Z,0.60
2023-04-15T04:09:07.431Z,0.60
2023-04-15T04:11:34.327Z,0.60
2023-04-15T04:14:01.083Z,0.60
2023-04-15T04:16:27.888Z,0.60
2023-04-15T04:18:54.880Z,0.60
2023-04-15T04:21:21.662Z,0.60
2023-04-15T04:23:48.487Z,0.60
2023-04-15T04:26:15.363Z,0.60
2023-04-15T04:28:42.114Z,0.70
2023-04-15T04:31:08.874Z,0.60
2023-04-15T04:33:35.733Z,0.60
2023-04-15T04:36:02.557Z,0.70
2023-04-15T04:38:29.436Z,0.60
2023-04-15T04:40:56.333Z,0.60
2023-04-15T04:43:23.028Z,0.60
2023-04-15T04:45:49.915Z,0.70
2023-04-15T04:48:17.324Z,0.70
2023-04-15T04:50:45.010Z,0.70
2023-04-15T04:53:12.171Z,0.70
2023-04-15T04:55:38.922Z,0.70
2023-04-15T04:58:05.708Z,0.70
2023-04-15T05:00:32.511Z,0.70
2023-04-15T05:02:59.527Z,0.80
2023-04-15T05:05:27.064Z,0.80
2023-04-15T05:07:54.079Z,0.90
2023-04-15T05:10:21.126Z,0.90
2023-04-15T05:12:47.949Z,1.00
2023-04-15T05:15:14.620Z,1.00
2023-04-15T05:17:41.398Z,1.10
2023-04-15T05:20:08.718Z,1.10
2023-04-15T05:22:35.456Z,1.20
2023-04-15T05:25:02.163Z,1.20
2023-04-15T05:27:29.009Z,1.20
2023-04-15T05:29:56.622Z,1.30
2023-04-15T05:32:23.419Z,1.40
2023-04-15T05:34:50.419Z,1.40
2023-04-15T05:37:17.206Z,1.50
2023-04-15T05:39:44.411Z,1.60
2023-04-15T05:42:11.385Z,1.60
2023-04-15T05:44:38.184Z,1.70
2023-04-15T05:47:05.864Z,1.80
2023-04-15T05:49:32.791Z,1.80
2023-04-15T05:51:59.776Z,1.80
2023-04-15T05:54:27.871Z,1.90
2023-04-15T05:56:54.963Z,2.00
2023-04-15T05:59:22.102Z,2.10
2023-04-15T06:01:49.455Z,2.20
2023-04-15T06:04:17.166Z,2.30
2023-04-15T06:06:44.689Z,2.30
2023-04-15T06:09:11.654Z,2.40
2023-04-15T06:11:38.347Z,2.50
2023-04-15T06:14:05.068Z,2.60
2023-04-15T06:16:32.288Z,2.70
2023-04-15T06:18:59.267Z,2.80
2023-04-15T06:21:26.989Z,2.90
2023-04-15T06:23:53.894Z,3.00
2023-04-15T06:26:20.959Z,3.10
2023-04-15T06:28:47.755Z,3.20
2023-04-15T06:31:14.690Z,3.30
2023-04-15T06:33:41.552Z,3.40
2023-04-15T06:36:08.364Z,3.50
2023-04-15T06:38:35.368Z,3.90
2023-04-15T06:41:03.380Z,3.70
2023-04-15T06:43:30.701Z,3.80
2023-04-15T06:45:59.216Z,3.90
2023-04-15T06:48:27.462Z,3.90
2023-04-15T06:50:54.687Z,4.10
2023-04-15T06:53:22.933Z,4.30
2023-04-15T06:55:49.784Z,4.40
2023-04-15T06:58:17.144Z,4.50
2023-04-15T07:00:44.603Z,4.70
2023-04-15T07:03:12.872Z,4.80
2023-04-15T07:05:40.442Z,5.20
2023-04-15T07:08:07.622Z,5.50
2023-04-15T07:10:34.792Z,5.70
2023-04-15T07:13:01.852Z,6.10
2023-04-15T07:15:29.223Z,6.40
2023-04-15T07:17:56.334Z,6.90
2023-04-15T07:20:23.189Z,7.20
2023-04-15T07:22:50.071Z,7.60
2023-04-15T07:25:17.704Z,7.90
2023-04-15T07:27:44.802Z,8.00
2023-04-15T07:30:12.675Z,8.40
2023-04-15T07:32:39.710Z,8.70
2023-04-15T07:35:06.651Z,9.00
2023-04-15T07:37:33.705Z,9.10
2023-04-15T07:40:00.591Z,9.20
2023-04-15T07:42:27.652Z,9.30
2023-04-15T07:44:54.637Z,9.50
2023-04-15T07:47:22.116Z,10.00
2023-04-15T07:49:49.284Z,10.30
2023-04-15T07:52:16.652Z,10.80
2023-04-15T07:54:43.513Z,11.00
2023-04-15T07:57:10.581Z,12.90
2023-04-15T07:59:37.411Z,13.80
2023-04-15T08:02:04.230Z,12.00
2023-04-15T08:04:31.392Z,12.40
2023-04-15T08:06:58.446Z,12.90
2023-04-15T08:09:25.376Z,13.10
2023-04-15T08:11:52.067Z,14.60
2023-04-15T08:14:18.987Z,13.40
2023-04-15T08:16:45.884Z,13.50
2023-04-15T08:19:12.662Z,13.60
2023-04-15T08:21:40.605Z,13.60
2023-04-15T08:24:08.038Z,13.50
2023-04-15T08:26:34.842Z,13.50
2023-04-15T08:29:01.973Z,13.90
2023-04-15T08:31:30.043Z,13.30
2023-04-15T08:33:57.866Z,12.90
2023-04-15T08:36:24.689Z,12.70
2023-04-15T08:38:52.001Z,12.60
2023-04-15T08:41:23.487Z,12.70
2023-04-15T08:43:57.676Z,12.80
2023-04-15T08:46:24.829Z,13.20
2023-04-15T08:48:52.313Z,12.70
2023-04-15T08:51:19.606Z,12.70
2023-04-15T08:53:47.511Z,12.80
2023-04-15T08:56:16.708Z,12.80
2023-04-15T08:58:44.904Z,12.80
2023-04-15T09:01:13.165Z,12.80
2023-04-15T09:03:40.818Z,14.10
2023-04-15T09:06:08.140Z,13.40
2023-04-15T09:08:35.898Z,13.00
2023-04-15T09:11:03.829Z,14.40
2023-04-15T09:13:31.268Z,13.60
2023-04-15T09:15:58.527Z,13.00
2023-04-15T09:18:34.329Z,14.60
2023-04-15T09:21:11.097Z,13.10
2023-04-15T09:23:39.650Z,12.90
2023-04-15T09:26:07.160Z,12.80
2023-04-15T09:28:41.036Z,12.60
2023-04-15T09:31:12.074Z,12.40
2023-04-15T09:33:56.672Z,12.30
2023-04-15T09:36:25.369Z,12.20
2023-04-15T09:38:57.258Z,12.10
2023-04-15T09:42:06.925Z,12.30
2023-04-15T09:44:34.204Z,12.50
2023-04-15T09:47:06.334Z,12.60
2023-04-15T09:49:34.273Z,12.60
2023-04-15T09:52:06.034Z,12.50
2023-04-15T09:54:38.776Z,12.40
2023-04-15T09:57:13.103Z,12.10
2023-04-15T09:59:40.933Z,11.80
2023-04-15T10:02:08.214Z,11.60
2023-04-15T10:04:38.331Z,11.70
2023-04-15T10:07:09.576Z,11.80
2023-04-15T10:09:49.424Z,12.20
2023-04-15T10:12:20.224Z,12.60
2023-04-15T10:14:58.299Z,12.70
2023-04-15T10:17:33.555Z,12.80
2023-04-15T10:20:02.910Z,12.80
2023-04-15T10:22:30.762Z,12.60
2023-04-15T10:24:58.450Z,12.50
2023-04-15T10:27:27.764Z,12.50
2023-04-15T10:29:54.974Z,12.80
2023-04-15T10:32:26.330Z,12.50
2023-04-15T10:34:54.894Z,12.60
2023-04-15T10:37:33.030Z,12.50
2023-04-15T10:39:59.807Z,12.50
2023-04-15T10:42:34.650Z,12.50
2023-04-15T10:45:01.478Z,12.30
2023-04-15T10:47:28.500Z,12.00
2023-04-15T10:50:00.356Z,11.80
2023-04-15T10:52:28.976Z,11.70
2023-04-15T10:55:10.935Z,11.60
2023-04-15T10:57:42.286Z,11.60
2023-04-15T11:00:09.124Z,11.60
2023-04-15T11:02:52.732Z,11.90
2023-04-15T11:05:21.503Z,12.10
2023-04-15T11:07:56.081Z,12.10
2023-04-15T11:10:42.790Z,12.40
2023-04-15T11:13:09.643Z,12.50
2023-04-15T11:15:47.158Z,12.80
2023-04-15T11:18:18.695Z,13.10
2023-04-15T11:20:59.219Z,13.00
2023-04-15T11:23:32.152Z,12.80
2023-04-15T11:26:01.335Z,12.50
2023-04-15T11:28:30.920Z,12.40
2023-04-15T11:30:59.205Z,11.90
2023-04-15T11:33:27.279Z,11.80
2023-04-15T11:35:55.149Z,11.50
2023-04-15T11:38:22.758Z,11.60
2023-04-15T11:40:52.224Z,11.70
2023-04-15T11:43:21.113Z,11.90
2023-04-15T11:45:57.308Z,12.10
2023-04-15T11:48:29.305Z,12.30
2023-04-15T11:51:01.663Z,12.30
2023-04-15T11:53:47.865Z,12.10
2023-04-15T11:56:20.157Z,11.90
2023-04-15T11:58:47.677Z,11.80
2023-04-15T12:01:14.453Z,12.00
2023-04-15T12:03:43.914Z,12.00
2023-04-15T12:06:24.783Z,12.10
2023-04-15T12:09:06.796Z,12.20
2023-04-15T12:11:51.139Z,12.00
2023-04-15T12:14:29.189Z,11.90
2023-04-15T12:17:01.397Z,11.90
2023-04-15T12:19:29.405Z,11.60
2023-04-15T12:22:01.303Z,11.20
2023-04-15T12:24:30.952Z,11.00
2023-04-15T12:26:58.186Z,11.00
2023-04-15T12:29:29.037Z,10.90
2023-04-15T12:32:09.414Z,11.00
2023-04-15T12:34:38.736Z,11.10
2023-04-15T12:37:07.764Z,11.00
2023-04-15T12:39:39.261Z,11.00
2023-04-15T12:42:06.485Z,11.00
2023-04-15T12:44:34.192Z,11.10
2023-04-15T12:47:01.292Z,11.20
2023-04-15T12:49:28.635Z,11.20
2023-04-15T12:51:57.283Z,11.20
2023-04-15T12:54:24.245Z,11.20
2023-04-15T12:56:51.256Z,11.20
2023-04-15T12:59:18.732Z,11.30
2023-04-15T13:01:47.355Z,11.40
2023-04-15T13:04:15.031Z,11.50
2023-04-15T13:06:42.585Z,11.50
2023-04-15T13:09:09.438Z,11.50
2023-04-15T13:11:36.661Z,11.60
2023-04-15T13:14:08.672Z,11.70
2023-04-15T13:16:36.140Z,11.50
2023-04-15T13:19:04.123Z,13.10
2023-04-15T13:21:35.059Z,11.40
2023-04-15T13:24:02.420Z,11.40
2023-04-15T13:26:29.438Z,11.30
2023-04-15T13:28:56.633Z,11.40
2023-04-15T13:31:23.426Z,11.50
2023-04-15T13:33:50.243Z,11.70
2023-04-15T13:36:17.072Z,11.80
2023-04-15T13:38:43.790Z,12.60
2023-04-15T13:41:10.836Z,11.90
2023-04-15T13:43:37.693Z,11.80
2023-04-15T13:46:04.670Z,11.90
2023-04-15T13:48:31.595Z,12.00
2023-04-15T13:50:58.367Z,11.80
2023-04-15T13:53:37.707Z,11.80
2023-04-15T13:56:07.792Z,11.90
2023-04-15T13:58:34.624Z,12.00
2023-04-15T14:01:03.214Z,12.00
2023-04-15T14:03:30.936Z,12.20
2023-04-15T14:05:58.436Z,12.10
2023-04-15T14:08:26.192Z,11.90
2023-04-15T14:10:52.930Z,11.60
2023-04-15T14:13:19.700Z,11.70
2023-04-15T14:15:47.169Z,11.70
2023-04-15T14:18:13.982Z,11.60
2023-04-15T14:20:40.809Z,11.50
2023-04-15T14:23:07.670Z,11.50
2023-04-15T14:25:34.524Z,11.60
2023-04-15T14:28:02.325Z,11.60
2023-04-15T14:30:29.238Z,11.60
2023-04-15T14:32:56.199Z,11.70
2023-04-15T14:35:26.393Z,11.70
2023-04-15T14:37:53.825Z,11.80
2023-04-15T14:40:20.679Z,11.90
2023-04-15T14:42:47.448Z,12.10
2023-04-15T14:45:14.144Z,12.10
2023-04-15T14:47:41.191Z,11.80
2023-04-15T14:50:08.591Z,11.90
2023-04-15T14:52:39.104Z,11.80
2023-04-15T14:55:11.067Z,11.70
2023-04-15T14:57:39.225Z,13.20
2023-04-15T15:00:07.423Z,11.80
2023-04-15T15:02:39.210Z,11.90
2023-04-15T15:05:08.746Z,11.80
2023-04-15T15:07:40.688Z,12.00
2023-04-15T15:10:08.823Z,12.00
2023-04-15T15:12:35.928Z,12.10
2023-04-15T15:15:12.460Z,12.00
2023-04-15T15:17:42.849Z,11.90
2023-04-15T15:20:10.054Z,11.70
2023-04-15T15:22:36.865Z,11.60
2023-04-15T15:25:04.239Z,11.60
2023-04-15T15:27:31.313Z,11.70
2023-04-15T15:29:58.949Z,11.60
2023-04-15T15:32:25.816Z,11.60
2023-04-15T15:34:53.287Z,11.60
2023-04-15T15:37:20.272Z,11.60
2023-04-15T15:39:47.116Z,11.50
2023-04-15T15:42:13.954Z,11.40
2023-04-15T15:44:40.696Z,13.10
2023-04-15T15:47:07.786Z,11.20
2023-04-15T15:49:34.678Z,11.10
2023-04-15T15:52:01.438Z,11.10
2023-04-15T15:54:29.148Z,11.10
2023-04-15T15:56:57.500Z,11.20
2023-04-15T15:59:25.457Z,11.10
2023-04-15T16:01:52.367Z,11.10
2023-04-15T16:04:19.467Z,10.90
2023-04-15T16:06:46.980Z,10.90
2023-04-15T16:09:14.256Z,10.90
2023-04-15T16:11:41.552Z,10.80
2023-04-15T16:14:08.883Z,10.90
2023-04-15T16:16:36.061Z,10.90
2023-04-15T16:19:03.088Z,10.80
2023-04-15T16:21:31.236Z,11.60
2023-04-15T16:23:58.157Z,10.80
2023-04-15T16:26:24.958Z,10.80
2023-04-15T16:28:52.937Z,10.70
2023-04-15T16:31:19.751Z,10.70
2023-04-15T16:33:46.569Z,10.50
2023-04-15T16:36:13.637Z,10.40
2023-04-15T16:38:40.696Z,10.30
2023-04-15T16:41:07.521Z,10.30
2023-04-15T16:43:34.246Z,10.10
2023-04-15T16:46:01.152Z,9.90
2023-04-15T16:48:28.018Z,9.80
2023-04-15T16:50:55.030Z,9.60
2023-04-15T16:53:21.973Z,9.70
2023-04-15T16:55:49.005Z,9.30
2023-04-15T16:58:15.940Z,9.30
2023-04-15T17:00:42.662Z,9.30
2023-04-15T17:03:09.681Z,9.20
2023-04-15T17:05:38.374Z,9.20
2023-04-15T17:08:05.746Z,9.20
2023-04-15T17:10:32.527Z,9.20
2023-04-15T17:13:00.451Z,9.20
2023-04-15T17:15:27.490Z,9.10
2023-04-15T17:17:54.775Z,9.10
2023-04-15T17:20:21.832Z,9.10
2023-04-15T17:22:49.087Z,9.20
2023-04-15T17:25:16.116Z,9.10
2023-04-15T17:27:43.241Z,9.10
2023-04-15T17:30:10.612Z,9.20
2023-04-15T17:32:39.328Z,9.10
2023-04-15T17:35:06.871Z,9.10
2023-04-15T17:37:34.554Z,9.20
2023-04-15T17:40:01.725Z,9.10
2023-04-15T17:42:28.639Z,9.20
2023-04-15T17:44:55.369Z,9.10
2023-04-15T17:47:22.261Z,9.10
2023-04-15T17:49:48.970Z,9.50
2023-04-15T17:52:15.728Z,9.10
2023-04-15T17:54:42.461Z,9.20
2023-04-15T17:57:09.521Z,8.90
2023-04-15T17:59:36.372Z,9.20
2023-04-15T18:02:03.306Z,9.20
2023-04-15T18:04:30.419Z,9.10
2023-04-15T18:06:57.733Z,9.00
2023-04-15T18:09:24.704Z,9.00
2023-04-15T18:11:51.411Z,9.00
2023-04-15T18:14:33.033Z,8.90
2023-04-15T18:17:01.204Z,8.80
2023-04-15T18:19:28.456Z,8.80
2023-04-15T18:21:55.341Z,8.80
2023-04-15T18:24:22.752Z,8.80
2023-04-15T18:26:49.691Z,8.80
2023-04-15T18:29:16.636Z,8.70
2023-04-15T18:31:43.825Z,8.60
2023-04-15T18:34:10.843Z,8.50
2023-04-15T18:36:37.777Z,8.50
2023-04-15T18:41:32.905Z,8.50
2023-04-15T18:43:59.719Z,8.60
2023-04-15T18:46:27.509Z,8.50
2023-04-15T18:48:54.508Z,8.40
2023-04-15T18:51:21.345Z,9.00
2023-04-15T18:53:48.144Z,8.40
2023-04-15T18:56:15.008Z,8.40
2023-04-15T18:59:08.357Z,8.30
2023-04-15T19:01:31.998Z,8.40
2023-04-15T19:03:59.433Z,9.40
2023-04-15T19:06:27.110Z,8.00
2023-04-15T19:08:54.269Z,7.90
2023-04-15T19:11:21.194Z,7.90
2023-04-15T19:13:48.172Z,7.80
2023-04-15T19:16:15.016Z,8.20
2023-04-15T19:18:41.887Z,7.60
2023-04-15T19:21:08.723Z,7.40
2023-04-15T19:23:35.653Z,7.40
2023-04-15T19:26:02.504Z,7.30
2023-04-15T19:28:29.669Z,7.30
2023-04-15T19:30:57.876Z,7.30
2023-04-15T19:33:27.234Z,7.20
2023-04-15T19:35:54.132Z,7.10
2023-04-15T19:38:20.984Z,7.10
2023-04-15T19:40:47.839Z,7.10
2023-04-15T19:43:14.563Z,7.10
2023-04-15T19:45:41.490Z,7.00
2023-04-15T19:48:08.361Z,7.10
2023-04-15T19:50:36.317Z,7.10
2023-04-15T19:53:03.046Z,7.10
2023-04-15T19:55:29.841Z,7.10
2023-04-15T19:57:56.850Z,7.10
2023-04-15T20:00:23.554Z,7.10
2023-04-15T20:02:50.306Z,7.20
2023-04-15T20:05:17.126Z,7.20
2023-04-15T20:07:45.142Z,7.20
2023-04-15T20:10:13.197Z,7.10
2023-04-15T20:12:51.563Z,7.10
2023-04-15T20:15:22.572Z,7.10
2023-04-15T20:17:49.978Z,7.00
2023-04-15T20:20:16.843Z,7.00
2023-04-15T20:22:43.864Z,6.90
2023-04-15T20:25:10.718Z,6.90
2023-04-15T20:27:37.460Z,6.80
2023-04-15T20:30:05.055Z,6.80
2023-04-15T20:32:35.904Z,6.80
2023-04-15T20:35:04.485Z,6.70
2023-04-15T20:37:33.276Z,6.70
2023-04-15T20:40:01.636Z,6.70
2023-04-15T20:42:32.045Z,6.70
2023-04-15T20:44:58.859Z,6.70
2023-04-15T20:47:25.891Z,6.70
2023-04-15T20:49:52.730Z,6.70
2023-04-15T20:52:19.534Z,6.70
2023-04-15T20:54:47.022Z,6.80
2023-04-15T20:57:13.828Z,6.80
2023-04-15T20:59:40.770Z,6.90
2023-04-15T21:02:07.501Z,6.90
2023-04-15T21:04:34.204Z,6.90
2023-04-15T21:07:00.926Z,7.00
2023-04-15T21:09:27.682Z,7.00
2023-04-15T21:12:01.143Z,7.00
2023-04-15T21:14:29.376Z,7.00
2023-04-15T21:16:57.968Z,7.00
2023-04-15T21:19:24.807Z,7.00
2023-04-15T21:21:52.137Z,6.90
2023-04-15T21:24:18.936Z,6.80
2023-04-15T21:26:45.872Z,6.80
2023-04-15T21:29:13.071Z,6.60
2023-04-15T21:31:40.441Z,6.60
2023-04-15T21:34:07.414Z,6.60
2023-04-15T21:36:34.628Z,6.60
2023-04-15T21:39:01.336Z,6.50
2023-04-15T21:41:28.107Z,6.50
2023-04-15T21:43:54.818Z,6.40
2023-04-15T21:46:25.356Z,6.40
2023-04-15T21:48:59.380Z,7.10
2023-04-15T21:51:26.608Z,6.30
2023-04-15T21:53:53.441Z,7.20
2023-04-15T21:56:22.564Z,6.20
2023-04-15T21:58:49.338Z,6.10
2023-04-15T22:01:16.953Z,6.10
2023-04-15T22:03:44.382Z,6.10
2023-04-15T22:06:11.526Z,6.10
2023-04-15T22:08:52.355Z,6.10
2023-04-15T22:11:26.712Z,6.10
2023-04-15T22:13:54.516Z,6.10
2023-04-15T22:16:21.591Z,6.00
2023-04-15T22:18:48.648Z,6.00
2023-04-15T22:21:15.445Z,6.00
2023-04-15T22:23:45.726Z,6.00
2023-04-15T22:26:12.472Z,6.00
2023-04-15T22:28:39.171Z,6.00
2023-04-15T22:31:05.975Z,6.00
2023-04-15T22:33:32.799Z,6.00
2023-04-15T22:35:59.526Z,6.00
2023-04-15T22:38:26.577Z,6.00
2023-04-15T22:40:53.944Z,6.00
2023-04-15T22:43:20.730Z,6.00
2023-04-15T22:45:51.029Z,6.00
2023-04-15T22:48:21.008Z,6.00
2023-04-15T22:50:48.002Z,6.00
2023-04-15T22:53:16.210Z,6.00
2023-04-15T22:55:47.198Z,6.00
2023-04-15T22:58:14.855Z,6.00
2023-04-15T23:00:41.924Z,5.90
2023-04-15T23:03:08.690Z,6.00
2023-04-15T23:05:36.002Z,5.90
2023-04-15T23:08:02.833Z,6.00
2023-04-15T23:10:29.723Z,5.90
2023-04-15T23:12:56.443Z,5.90
2023-04-15T23:15:23.239Z,5.90
2023-04-15T23:17:50.418Z,5.90
2023-04-15T23:20:17.292Z,5.90
2023-04-15T23:22:44.127Z,5.80
2023-04-15T23:25:10.944Z,5.80
2023-04-15T23:27:37.618Z,5.80
2023-04-15T23:30:04.830Z,5.80
2023-04-15T23:32:31.528Z,5.90
2023-04-15T23:34:58.317Z,5.80
2023-04-15T23:37:25.137Z,5.80
2023-04-15T23:39:52.208Z,5.90
2023-04-15T23:42:18.912Z,5.80
2023-04-15T23:44:45.940Z,5.80
2023-04-15T23:47:12.685Z,5.80
2023-04-15T23:49:40.935Z,5.80
2023-04-15T23:52:08.084Z,5.80
2023-04-15T23:54:35.030Z,5.80
2023-04-15T23:57:03.482Z,5.90
2023-04-15T23:59:30.641Z,5.80
